sensor_id;sensor_type;location;lat;lon;timestamp;P1;durP1;ratioP1;P2;durP2;ratioP2
77326;SDS011;66399;52.322;20.980;2023-04-06T00:03:05;5.90;;;1.90;;
77326;SDS011;66399;52.322;20.980;2023-04-06T00:07:10;6.50;;;2.40;;
77326;SDS011;66399;52.322;20.980;2023-04-06T00:11:15;4.90;;;2.30;;
77326;SDS011;66399;52.322;20.980;2023-04-06T00:15:21;4.50;;;2.20;;
77326;SDS011;66399;52.322;20.980;2023-04-06T00:19:26;5.90;;;2.20;;
77326;SDS011;66399;52.322;20.980;2023-04-06T00:23:32;4.40;;;2.10;;
77326;SDS011;66399;52.322;20.980;2023-04-06T00:27:37;5.20;;;2.80;;
77326;SDS011;66399;52.322;20.980;2023-04-06T00:31:44;5.30;;;2.40;;
77326;SDS011;66399;52.322;20.980;2023-04-06T00:35:50;5.60;;;2.40;;
77326;SDS011;66399;52.322;20.980;2023-04-06T00:39:55;5.30;;;2.60;;
77326;SDS011;66399;52.322;20.980;2023-04-06T00:44:00;6.70;;;2.50;;
77326;SDS011;66399;52.322;20.980;2023-04-06T00:48:06;13.80;;;4.70;;
77326;SDS011;66399;52.322;20.980;2023-04-06T00:52:11;9.80;;;3.20;;
77326;SDS011;66399;52.322;20.980;2023-04-06T00:56:16;13.10;;;4.30;;
77326;SDS011;66399;52.322;20.980;2023-04-06T01:00:22;10.20;;;3.70;;
77326;SDS011;66399;52.322;20.980;2023-04-06T01:04:27;12.60;;;4.20;;
77326;SDS011;66399;52.322;20.980;2023-04-06T01:08:32;13.40;;;4.00;;
77326;SDS011;66399;52.322;20.980;2023-04-06T01:12:38;8.20;;;3.60;;
77326;SDS011;66399;52.322;20.980;2023-04-06T01:16:43;9.10;;;3.30;;
77326;SDS011;66399;52.322;20.980;2023-04-06T01:20:49;7.40;;;2.90;;
77326;SDS011;66399;52.322;20.980;2023-04-06T01:24:54;8.40;;;3.00;;
77326;SDS011;66399;52.322;20.980;2023-04-06T01:33:04;5.60;;;2.10;;
77326;SDS011;66399;52.322;20.980;2023-04-06T01:37:09;9.90;;;3.30;;
77326;SDS011;66399;52.322;20.980;2023-04-06T01:41:14;8.70;;;3.00;;
77326;SDS011;66399;52.322;20.980;2023-04-06T01:45:19;8.80;;;3.30;;
77326;SDS011;66399;52.322;20.980;2023-04-06T01:49:25;7.00;;;2.30;;
77326;SDS011;66399;52.322;20.980;2023-04-06T01:53:30;7.50;;;3.00;;
77326;SDS011;66399;52.322;20.980;2023-04-06T01:57:35;4.80;;;2.40;;
77326;SDS011;66399;52.322;20.980;2023-04-06T02:01:41;15.10;;;4.70;;
77326;SDS011;66399;52.322;20.980;2023-04-06T02:05:46;13.30;;;4.50;;
77326;SDS011;66399;52.322;20.980;2023-04-06T02:09:53;16.00;;;4.80;;
77326;SDS011;66399;52.322;20.980;2023-04-06T02:13:59;6.30;;;2.70;;
77326;SDS011;66399;52.322;20.980;2023-04-06T02:18:05;10.20;;;4.00;;
77326;SDS011;66399;52.322;20.980;2023-04-06T02:22:10;13.70;;;4.70;;
77326;SDS011;66399;52.322;20.980;2023-04-06T02:26:16;7.20;;;3.10;;
77326;SDS011;66399;52.322;20.980;2023-04-06T02:30:21;8.40;;;3.80;;
77326;SDS011;66399;52.322;20.980;2023-04-06T02:34:26;5.90;;;2.00;;
77326;SDS011;66399;52.322;20.980;2023-04-06T02:38:32;7.40;;;3.40;;
77326;SDS011;66399;52.322;20.980;2023-04-06T02:42:37;8.60;;;2.90;;
77326;SDS011;66399;52.322;20.980;2023-04-06T02:46:42;8.60;;;3.20;;
77326;SDS011;66399;52.322;20.980;2023-04-06T02:50:47;12.20;;;4.40;;
77326;SDS011;66399;52.322;20.980;2023-04-06T02:54:55;8.30;;;3.30;;
77326;SDS011;66399;52.322;20.980;2023-04-06T02:59:00;12.50;;;3.90;;
77326;SDS011;66399;52.322;20.980;2023-04-06T03:03:05;13.00;;;3.80;;
77326;SDS011;66399;52.322;20.980;2023-04-06T03:07:11;10.40;;;3.70;;
77326;SDS011;66399;52.322;20.980;2023-04-06T03:11:16;8.90;;;4.10;;
77326;SDS011;66399;52.322;20.980;2023-04-06T03:15:22;8.80;;;4.10;;
77326;SDS011;66399;52.322;20.980;2023-04-06T03:19:27;10.90;;;3.80;;
77326;SDS011;66399;52.322;20.980;2023-04-06T03:23:32;8.50;;;3.70;;
77326;SDS011;66399;52.322;20.980;2023-04-06T03:27:37;9.50;;;3.60;;
77326;SDS011;66399;52.322;20.980;2023-04-06T03:31:43;8.20;;;3.70;;
77326;SDS011;66399;52.322;20.980;2023-04-06T03:35:48;7.10;;;3.00;;
77326;SDS011;66399;52.322;20.980;2023-04-06T03:39:53;10.90;;;3.30;;
77326;SDS011;66399;52.322;20.980;2023-04-06T03:43:59;9.20;;;4.10;;
77326;SDS011;66399;52.322;20.980;2023-04-06T03:48:04;8.40;;;3.70;;
77326;SDS011;66399;52.322;20.980;2023-04-06T03:52:10;9.60;;;3.90;;
77326;SDS011;66399;52.322;20.980;2023-04-06T03:56:15;10.30;;;4.00;;
77326;SDS011;66399;52.322;20.980;2023-04-06T04:00:20;10.40;;;3.80;;
77326;SDS011;66399;52.322;20.980;2023-04-06T04:04:26;8.80;;;3.90;;
77326;SDS011;66399;52.322;20.980;2023-04-06T04:08:31;7.90;;;3.40;;
77326;SDS011;66399;52.322;20.980;2023-04-06T04:12:36;9.20;;;3.40;;
77326;SDS011;66399;52.322;20.980;2023-04-06T04:16:44;7.90;;;3.60;;
77326;SDS011;66399;52.322;20.980;2023-04-06T04:20:49;10.00;;;3.40;;
77326;SDS011;66399;52.322;20.980;2023-04-06T04:24:54;8.20;;;3.00;;
77326;SDS011;66399;52.322;20.980;2023-04-06T04:28:59;7.40;;;3.10;;
77326;SDS011;66399;52.322;20.980;2023-04-06T04:33:05;3.70;;;1.50;;
77326;SDS011;66399;52.322;20.980;2023-04-06T04:37:10;6.10;;;2.40;;
77326;SDS011;66399;52.322;20.980;2023-04-06T04:41:15;5.40;;;2.80;;
77326;SDS011;66399;52.322;20.980;2023-04-06T04:45:21;2.50;;;1.30;;
77326;SDS011;66399;52.322;20.980;2023-04-06T04:49:28;6.50;;;3.30;;
77326;SDS011;66399;52.322;20.980;2023-04-06T04:53:34;5.50;;;2.60;;
77326;SDS011;66399;52.322;20.980;2023-04-06T04:57:39;3.70;;;1.10;;
77326;SDS011;66399;52.322;20.980;2023-04-06T05:01:44;8.70;;;3.30;;
77326;SDS011;66399;52.322;20.980;2023-04-06T05:05:58;7.10;;;3.00;;
77326;SDS011;66399;52.322;20.980;2023-04-06T05:10:04;5.10;;;2.00;;
77326;SDS011;66399;52.322;20.980;2023-04-06T05:14:09;8.10;;;3.40;;
77326;SDS011;66399;52.322;20.980;2023-04-06T05:18:14;7.50;;;2.80;;
77326;SDS011;66399;52.322;20.980;2023-04-06T05:22:20;4.40;;;1.60;;
77326;SDS011;66399;52.322;20.980;2023-04-06T05:26:25;6.30;;;2.70;;
77326;SDS011;66399;52.322;20.980;2023-04-06T05:30:30;6.00;;;2.40;;
77326;SDS011;66399;52.322;20.980;2023-04-06T05:34:36;5.00;;;1.60;;
77326;SDS011;66399;52.322;20.980;2023-04-06T05:38:41;6.90;;;2.40;;
77326;SDS011;66399;52.322;20.980;2023-04-06T05:42:46;6.50;;;2.80;;
77326;SDS011;66399;52.322;20.980;2023-04-06T05:46:53;5.00;;;2.40;;
77326;SDS011;66399;52.322;20.980;2023-04-06T05:50:58;5.20;;;2.00;;
77326;SDS011;66399;52.322;20.980;2023-04-06T05:55:05;4.20;;;2.00;;
77326;SDS011;66399;52.322;20.980;2023-04-06T05:59:13;3.60;;;1.70;;
77326;SDS011;66399;52.322;20.980;2023-04-06T06:03:19;6.30;;;2.40;;
77326;SDS011;66399;52.322;20.980;2023-04-06T06:07:27;5.70;;;2.10;;
77326;SDS011;66399;52.322;20.980;2023-04-06T06:11:32;4.80;;;2.20;;
77326;SDS011;66399;52.322;20.980;2023-04-06T06:15:38;7.30;;;2.30;;
77326;SDS011;66399;52.322;20.980;2023-04-06T06:19:43;4.80;;;2.40;;
77326;SDS011;66399;52.322;20.980;2023-04-06T06:23:48;6.10;;;2.50;;
77326;SDS011;66399;52.322;20.980;2023-04-06T06:27:54;2.80;;;1.10;;
77326;SDS011;66399;52.322;20.980;2023-04-06T06:31:59;4.70;;;2.00;;
77326;SDS011;66399;52.322;20.980;2023-04-06T06:36:04;5.40;;;2.00;;
77326;SDS011;66399;52.322;20.980;2023-04-06T06:40:10;3.70;;;1.80;;
77326;SDS011;66399;52.322;20.980;2023-04-06T06:44:17;5.00;;;2.00;;
77326;SDS011;66399;52.322;20.980;2023-04-06T06:48:22;3.80;;;2.00;;
77326;SDS011;66399;52.322;20.980;2023-04-06T06:52:27;4.80;;;1.80;;
77326;SDS011;66399;52.322;20.980;2023-04-06T06:56:33;5.40;;;2.10;;
77326;SDS011;66399;52.322;20.980;2023-04-06T07:00:39;3.90;;;1.70;;
77326;SDS011;66399;52.322;20.980;2023-04-06T07:04:47;5.20;;;2.10;;
77326;SDS011;66399;52.322;20.980;2023-04-06T07:08:52;4.20;;;1.80;;
77326;SDS011;66399;52.322;20.980;2023-04-06T07:12:57;4.30;;;2.00;;
77326;SDS011;66399;52.322;20.980;2023-04-06T07:17:02;3.80;;;1.60;;
77326;SDS011;66399;52.322;20.980;2023-04-06T07:21:08;2.60;;;1.50;;
77326;SDS011;66399;52.322;20.980;2023-04-06T07:25:13;3.00;;;1.60;;
77326;SDS011;66399;52.322;20.980;2023-04-06T07:29:18;4.80;;;2.00;;
77326;SDS011;66399;52.322;20.980;2023-04-06T07:33:24;2.90;;;1.40;;
77326;SDS011;66399;52.322;20.980;2023-04-06T07:37:33;4.10;;;1.60;;
77326;SDS011;66399;52.322;20.980;2023-04-06T07:41:38;5.00;;;1.80;;
77326;SDS011;66399;52.322;20.980;2023-04-06T07:45:44;2.50;;;1.30;;
77326;SDS011;66399;52.322;20.980;2023-04-06T07:49:49;6.10;;;2.20;;
77326;SDS011;66399;52.322;20.980;2023-04-06T07:53:54;4.90;;;2.20;;
77326;SDS011;66399;52.322;20.980;2023-04-06T07:58:00;3.40;;;1.70;;
77326;SDS011;66399;52.322;20.980;2023-04-06T08:02:05;2.50;;;1.10;;
77326;SDS011;66399;52.322;20.980;2023-04-06T08:06:11;4.60;;;2.50;;
77326;SDS011;66399;52.322;20.980;2023-04-06T08:10:16;4.90;;;1.80;;
77326;SDS011;66399;52.322;20.980;2023-04-06T08:14:21;3.10;;;1.70;;
77326;SDS011;66399;52.322;20.980;2023-04-06T08:18:27;3.50;;;1.50;;
77326;SDS011;66399;52.322;20.980;2023-04-06T08:22:33;6.80;;;2.00;;
77326;SDS011;66399;52.322;20.980;2023-04-06T08:26:39;3.30;;;1.80;;
77326;SDS011;66399;52.322;20.980;2023-04-06T08:30:44;5.80;;;2.00;;
77326;SDS011;66399;52.322;20.980;2023-04-06T08:34:52;3.50;;;1.80;;
77326;SDS011;66399;52.322;20.980;2023-04-06T08:38:58;4.40;;;1.80;;
77326;SDS011;66399;52.322;20.980;2023-04-06T08:43:05;4.50;;;1.70;;
77326;SDS011;66399;52.322;20.980;2023-04-06T08:47:12;3.30;;;1.70;;
77326;SDS011;66399;52.322;20.980;2023-04-06T08:51:17;5.30;;;2.30;;
77326;SDS011;66399;52.322;20.980;2023-04-06T08:55:24;4.10;;;2.00;;
77326;SDS011;66399;52.322;20.980;2023-04-06T09:08:17;3.10;;;1.50;;
77326;SDS011;66399;52.322;20.980;2023-04-06T09:12:24;3.20;;;1.80;;
77326;SDS011;66399;52.322;20.980;2023-04-06T09:16:39;3.50;;;1.70;;
77326;SDS011;66399;52.322;20.980;2023-04-06T09:20:45;4.40;;;2.00;;
77326;SDS011;66399;52.322;20.980;2023-04-06T09:29:41;4.80;;;1.70;;
77326;SDS011;66399;52.322;20.980;2023-04-06T09:38:11;4.70;;;2.00;;
77326;SDS011;66399;52.322;20.980;2023-04-06T09:47:01;4.70;;;2.30;;
77326;SDS011;66399;52.322;20.980;2023-04-06T09:51:07;4.00;;;1.70;;
77326;SDS011;66399;52.322;20.980;2023-04-06T09:55:34;3.90;;;1.90;;
77326;SDS011;66399;52.322;20.980;2023-04-06T09:59:42;4.70;;;1.50;;
77326;SDS011;66399;52.322;20.980;2023-04-06T10:04:03;3.20;;;1.70;;
77326;SDS011;66399;52.322;20.980;2023-04-06T10:12:43;4.70;;;1.70;;
77326;SDS011;66399;52.322;20.980;2023-04-06T10:16:49;3.80;;;2.10;;
77326;SDS011;66399;52.322;20.980;2023-04-06T10:20:56;3.30;;;1.50;;
77326;SDS011;66399;52.322;20.980;2023-04-06T10:25:16;4.70;;;2.00;;
77326;SDS011;66399;52.322;20.980;2023-04-06T10:29:21;6.00;;;2.20;;
77326;SDS011;66399;52.322;20.980;2023-04-06T10:42:13;4.10;;;1.80;;
77326;SDS011;66399;52.322;20.980;2023-04-06T10:46:24;4.40;;;2.50;;
77326;SDS011;66399;52.322;20.980;2023-04-06T10:50:35;8.60;;;2.90;;
77326;SDS011;66399;52.322;20.980;2023-04-06T10:54:42;4.00;;;2.20;;
77326;SDS011;66399;52.322;20.980;2023-04-06T10:59:01;4.10;;;1.50;;
77326;SDS011;66399;52.322;20.980;2023-04-06T11:03:06;5.90;;;2.50;;
77326;SDS011;66399;52.322;20.980;2023-04-06T11:11:26;6.10;;;2.80;;
77326;SDS011;66399;52.322;20.980;2023-04-06T11:15:34;3.10;;;1.60;;
77326;SDS011;66399;52.322;20.980;2023-04-06T11:19:56;5.90;;;2.60;;
77326;SDS011;66399;52.322;20.980;2023-04-06T11:24:08;8.20;;;2.70;;
77326;SDS011;66399;52.322;20.980;2023-04-06T11:33:00;3.70;;;1.50;;
77326;SDS011;66399;52.322;20.980;2023-04-06T11:46:32;10.20;;;4.10;;
77326;SDS011;66399;52.322;20.980;2023-04-06T11:55:36;3.60;;;2.10;;
77326;SDS011;66399;52.322;20.980;2023-04-06T12:04:01;4.80;;;2.50;;
77326;SDS011;66399;52.322;20.980;2023-04-06T12:08:06;4.20;;;2.30;;
77326;SDS011;66399;52.322;20.980;2023-04-06T12:16:26;9.20;;;2.80;;
77326;SDS011;66399;52.322;20.980;2023-04-06T12:20:39;3.60;;;1.30;;
77326;SDS011;66399;52.322;20.980;2023-04-06T12:24:45;4.00;;;2.10;;
77326;SDS011;66399;52.322;20.980;2023-04-06T12:28:50;4.70;;;2.10;;
77326;SDS011;66399;52.322;20.980;2023-04-06T12:33:02;4.10;;;2.00;;
77326;SDS011;66399;52.322;20.980;2023-04-06T12:37:08;3.60;;;1.40;;
77326;SDS011;66399;52.322;20.980;2023-04-06T12:41:13;3.70;;;1.70;;
77326;SDS011;66399;52.322;20.980;2023-04-06T12:45:32;2.50;;;1.30;;
77326;SDS011;66399;52.322;20.980;2023-04-06T12:49:38;4.30;;;2.00;;
77326;SDS011;66399;52.322;20.980;2023-04-06T13:02:26;3.70;;;1.70;;
77326;SDS011;66399;52.322;20.980;2023-04-06T13:06:32;5.60;;;2.70;;
77326;SDS011;66399;52.322;20.980;2023-04-06T13:14:50;4.20;;;2.20;;
77326;SDS011;66399;52.322;20.980;2023-04-06T13:18:56;3.30;;;1.80;;
77326;SDS011;66399;52.322;20.980;2023-04-06T13:27:21;6.60;;;3.40;;
77326;SDS011;66399;52.322;20.980;2023-04-06T13:31:27;6.10;;;3.50;;
77326;SDS011;66399;52.322;20.980;2023-04-06T13:35:32;4.90;;;1.90;;
77326;SDS011;66399;52.322;20.980;2023-04-06T13:39:39;5.60;;;2.20;;
77326;SDS011;66399;52.322;20.980;2023-04-06T13:43:55;5.30;;;2.20;;
77326;SDS011;66399;52.322;20.980;2023-04-06T13:48:01;3.00;;;1.40;;
77326;SDS011;66399;52.322;20.980;2023-04-06T13:52:07;5.90;;;3.00;;
77326;SDS011;66399;52.322;20.980;2023-04-06T14:00:27;6.60;;;3.50;;
77326;SDS011;66399;52.322;20.980;2023-04-06T14:04:33;5.90;;;2.90;;
77326;SDS011;66399;52.322;20.980;2023-04-06T14:09:03;2.60;;;1.20;;
77326;SDS011;66399;52.322;20.980;2023-04-06T14:30:50;4.20;;;2.30;;
77326;SDS011;66399;52.322;20.980;2023-04-06T14:34:59;2.30;;;1.30;;
77326;SDS011;66399;52.322;20.980;2023-04-06T14:47:43;3.60;;;1.50;;
77326;SDS011;66399;52.322;20.980;2023-04-06T14:51:49;5.00;;;2.50;;
77326;SDS011;66399;52.322;20.980;2023-04-06T15:22:38;7.10;;;2.50;;
77326;SDS011;66399;52.322;20.980;2023-04-06T15:26:43;16.80;;;6.40;;
77326;SDS011;66399;52.322;20.980;2023-04-06T15:35:38;7.40;;;4.30;;
77326;SDS011;66399;52.322;20.980;2023-04-06T15:44:02;10.10;;;2.90;;
77326;SDS011;66399;52.322;20.980;2023-04-06T15:48:07;8.40;;;3.10;;
77326;SDS011;66399;52.322;20.980;2023-04-06T15:56:42;6.60;;;2.50;;
77326;SDS011;66399;52.322;20.980;2023-04-06T16:00:47;4.50;;;1.70;;
77326;SDS011;66399;52.322;20.980;2023-04-06T16:04:54;5.50;;;2.50;;
77326;SDS011;66399;52.322;20.980;2023-04-06T16:09:00;4.90;;;2.20;;
77326;SDS011;66399;52.322;20.980;2023-04-06T16:13:05;5.30;;;2.50;;
77326;SDS011;66399;52.322;20.980;2023-04-06T16:17:11;4.70;;;2.20;;
77326;SDS011;66399;52.322;20.980;2023-04-06T16:21:16;5.60;;;2.20;;
77326;SDS011;66399;52.322;20.980;2023-04-06T16:25:21;4.90;;;2.10;;
77326;SDS011;66399;52.322;20.980;2023-04-06T16:29:27;5.80;;;2.50;;
77326;SDS011;66399;52.322;20.980;2023-04-06T16:33:34;5.00;;;2.00;;
77326;SDS011;66399;52.322;20.980;2023-04-06T16:37:39;5.20;;;2.40;;
77326;SDS011;66399;52.322;20.980;2023-04-06T16:41:45;6.20;;;3.10;;
77326;SDS011;66399;52.322;20.980;2023-04-06T16:45:50;7.20;;;3.50;;
77326;SDS011;66399;52.322;20.980;2023-04-06T16:49:55;2.60;;;1.20;;
77326;SDS011;66399;52.322;20.980;2023-04-06T16:54:09;9.30;;;3.10;;
77326;SDS011;66399;52.322;20.980;2023-04-06T16:58:14;8.10;;;3.00;;
77326;SDS011;66399;52.322;20.980;2023-04-06T17:02:20;6.40;;;2.90;;
77326;SDS011;66399;52.322;20.980;2023-04-06T17:06:25;4.10;;;2.10;;
77326;SDS011;66399;52.322;20.980;2023-04-06T17:10:31;8.40;;;3.70;;
77326;SDS011;66399;52.322;20.980;2023-04-06T17:14:44;3.20;;;1.60;;
77326;SDS011;66399;52.322;20.980;2023-04-06T17:18:49;6.00;;;2.10;;
77326;SDS011;66399;52.322;20.980;2023-04-06T17:22:55;8.90;;;3.70;;
77326;SDS011;66399;52.322;20.980;2023-04-06T17:27:00;9.60;;;3.30;;
77326;SDS011;66399;52.322;20.980;2023-04-06T17:31:07;6.80;;;3.30;;
77326;SDS011;66399;52.322;20.980;2023-04-06T17:35:13;7.80;;;3.30;;
77326;SDS011;66399;52.322;20.980;2023-04-06T17:39:18;8.50;;;3.90;;
77326;SDS011;66399;52.322;20.980;2023-04-06T17:43:24;5.00;;;2.40;;
77326;SDS011;66399;52.322;20.980;2023-04-06T17:47:30;8.30;;;4.10;;
77326;SDS011;66399;52.322;20.980;2023-04-06T17:51:36;8.20;;;3.40;;
77326;SDS011;66399;52.322;20.980;2023-04-06T17:55:41;9.30;;;3.90;;
77326;SDS011;66399;52.322;20.980;2023-04-06T17:59:47;8.20;;;3.20;;
77326;SDS011;66399;52.322;20.980;2023-04-06T18:03:52;4.40;;;2.30;;
77326;SDS011;66399;52.322;20.980;2023-04-06T18:07:57;8.20;;;3.60;;
77326;SDS011;66399;52.322;20.980;2023-04-06T18:12:03;7.60;;;3.20;;
77326;SDS011;66399;52.322;20.980;2023-04-06T18:16:08;9.20;;;3.40;;
77326;SDS011;66399;52.322;20.980;2023-04-06T18:20:14;3.70;;;1.60;;
77326;SDS011;66399;52.322;20.980;2023-04-06T18:24:20;8.50;;;3.90;;
77326;SDS011;66399;52.322;20.980;2023-04-06T18:28:40;10.10;;;4.00;;
77326;SDS011;66399;52.322;20.980;2023-04-06T18:32:46;10.10;;;4.10;;
77326;SDS011;66399;52.322;20.980;2023-04-06T18:36:51;9.40;;;4.40;;
77326;SDS011;66399;52.322;20.980;2023-04-06T18:40:57;4.80;;;2.30;;
77326;SDS011;66399;52.322;20.980;2023-04-06T18:45:03;4.50;;;2.60;;
77326;SDS011;66399;52.322;20.980;2023-04-06T18:49:08;7.30;;;4.10;;
77326;SDS011;66399;52.322;20.980;2023-04-06T18:53:13;8.50;;;3.90;;
77326;SDS011;66399;52.322;20.980;2023-04-06T18:57:19;3.90;;;2.00;;
77326;SDS011;66399;52.322;20.980;2023-04-06T19:01:25;5.60;;;2.40;;
77326;SDS011;66399;52.322;20.980;2023-04-06T19:05:30;6.30;;;2.80;;
77326;SDS011;66399;52.322;20.980;2023-04-06T19:09:36;7.80;;;3.30;;
77326;SDS011;66399;52.322;20.980;2023-04-06T19:13:41;7.10;;;3.30;;
77326;SDS011;66399;52.322;20.980;2023-04-06T19:17:49;2.30;;;1.30;;
77326;SDS011;66399;52.322;20.980;2023-04-06T19:21:54;5.50;;;3.30;;
77326;SDS011;66399;52.322;20.980;2023-04-06T19:26:01;7.00;;;3.40;;
77326;SDS011;66399;52.322;20.980;2023-04-06T19:30:07;8.00;;;3.40;;
77326;SDS011;66399;52.322;20.980;2023-04-06T19:34:13;5.10;;;2.40;;
77326;SDS011;66399;52.322;20.980;2023-04-06T19:38:20;3.00;;;1.30;;
77326;SDS011;66399;52.322;20.980;2023-04-06T19:42:25;6.40;;;3.40;;
77326;SDS011;66399;52.322;20.980;2023-04-06T19:46:31;6.70;;;2.80;;
77326;SDS011;66399;52.322;20.980;2023-04-06T19:50:36;11.00;;;4.60;;
77326;SDS011;66399;52.322;20.980;2023-04-06T19:54:41;12.00;;;4.90;;
77326;SDS011;66399;52.322;20.980;2023-04-06T19:58:49;7.00;;;3.10;;
77326;SDS011;66399;52.322;20.980;2023-04-06T20:02:55;6.80;;;3.20;;
77326;SDS011;66399;52.322;20.980;2023-04-06T20:07:01;5.50;;;2.90;;
77326;SDS011;66399;52.322;20.980;2023-04-06T20:11:06;6.40;;;2.80;;
77326;SDS011;66399;52.322;20.980;2023-04-06T20:15:11;8.40;;;4.10;;
77326;SDS011;66399;52.322;20.980;2023-04-06T20:19:16;5.00;;;2.70;;
77326;SDS011;66399;52.322;20.980;2023-04-06T20:23:22;7.50;;;3.70;;
77326;SDS011;66399;52.322;20.980;2023-04-06T20:27:27;10.60;;;4.70;;
77326;SDS011;66399;52.322;20.980;2023-04-06T20:31:32;8.10;;;3.70;;
77326;SDS011;66399;52.322;20.980;2023-04-06T20:35:38;7.10;;;3.80;;
77326;SDS011;66399;52.322;20.980;2023-04-06T20:39:43;8.50;;;4.10;;
77326;SDS011;66399;52.322;20.980;2023-04-06T20:43:48;7.80;;;3.80;;
77326;SDS011;66399;52.322;20.980;2023-04-06T20:47:53;10.00;;;4.40;;
77326;SDS011;66399;52.322;20.980;2023-04-06T20:51:59;10.20;;;4.80;;
77326;SDS011;66399;52.322;20.980;2023-04-06T21:00:09;8.60;;;4.30;;
77326;SDS011;66399;52.322;20.980;2023-04-06T21:04:15;8.80;;;4.10;;
77326;SDS011;66399;52.322;20.980;2023-04-06T21:08:21;6.70;;;2.90;;
77326;SDS011;66399;52.322;20.980;2023-04-06T21:12:26;9.70;;;3.80;;
77326;SDS011;66399;52.322;20.980;2023-04-06T21:16:32;9.20;;;4.70;;
77326;SDS011;66399;52.322;20.980;2023-04-06T21:20:37;11.50;;;4.90;;
77326;SDS011;66399;52.322;20.980;2023-04-06T21:24:42;8.30;;;3.90;;
77326;SDS011;66399;52.322;20.980;2023-04-06T21:28:48;10.80;;;5.10;;
77326;SDS011;66399;52.322;20.980;2023-04-06T21:32:53;12.70;;;5.60;;
77326;SDS011;66399;52.322;20.980;2023-04-06T21:36:58;12.30;;;5.70;;
77326;SDS011;66399;52.322;20.980;2023-04-06T21:41:04;12.60;;;6.30;;
77326;SDS011;66399;52.322;20.980;2023-04-06T21:45:10;8.70;;;3.70;;
77326;SDS011;66399;52.322;20.980;2023-04-06T21:49:15;10.50;;;5.30;;
77326;SDS011;66399;52.322;20.980;2023-04-06T21:53:20;11.00;;;5.10;;
77326;SDS011;66399;52.322;20.980;2023-04-06T21:57:26;12.30;;;5.00;;
77326;SDS011;66399;52.322;20.980;2023-04-06T22:01:31;10.80;;;5.10;;
77326;SDS011;66399;52.322;20.980;2023-04-06T22:05:36;8.80;;;4.10;;
77326;SDS011;66399;52.322;20.980;2023-04-06T22:09:41;10.50;;;4.90;;
77326;SDS011;66399;52.322;20.980;2023-04-06T22:13:54;7.30;;;4.00;;
77326;SDS011;66399;52.322;20.980;2023-04-06T22:18:00;9.80;;;3.70;;
77326;SDS011;66399;52.322;20.980;2023-04-06T22:22:05;10.90;;;4.30;;
77326;SDS011;66399;52.322;20.980;2023-04-06T22:26:10;10.70;;;4.60;;
77326;SDS011;66399;52.322;20.980;2023-04-06T22:30:16;10.60;;;4.90;;
77326;SDS011;66399;52.322;20.980;2023-04-06T22:34:21;12.00;;;5.00;;
77326;SDS011;66399;52.322;20.980;2023-04-06T22:38:26;10.10;;;4.70;;
77326;SDS011;66399;52.322;20.980;2023-04-06T22:42:31;12.40;;;5.70;;
77326;SDS011;66399;52.322;20.980;2023-04-06T22:46:37;10.70;;;5.00;;
77326;SDS011;66399;52.322;20.980;2023-04-06T22:50:42;10.20;;;4.90;;
77326;SDS011;66399;52.322;20.980;2023-04-06T22:54:47;8.90;;;4.40;;
77326;SDS011;66399;52.322;20.980;2023-04-06T22:58:53;9.50;;;4.30;;
77326;SDS011;66399;52.322;20.980;2023-04-06T23:02:59;7.80;;;3.60;;
77326;SDS011;66399;52.322;20.980;2023-04-06T23:07:04;10.60;;;4.50;;
77326;SDS011;66399;52.322;20.980;2023-04-06T23:11:10;9.90;;;4.80;;
77326;SDS011;66399;52.322;20.980;2023-04-06T23:15:15;9.80;;;4.50;;
77326;SDS011;66399;52.322;20.980;2023-04-06T23:19:20;11.60;;;5.50;;
77326;SDS011;66399;52.322;20.980;2023-04-06T23:23:26;10.30;;;4.60;;
77326;SDS011;66399;52.322;20.980;2023-04-06T23:27:31;11.60;;;5.00;;
77326;SDS011;66399;52.322;20.980;2023-04-06T23:31:39;7.10;;;3.30;;
77326;SDS011;66399;52.322;20.980;2023-04-06T23:35:44;13.30;;;5.60;;
77326;SDS011;66399;52.322;20.980;2023-04-06T23:39:49;8.50;;;4.10;;
77326;SDS011;66399;52.322;20.980;2023-04-06T23:43:55;10.90;;;5.30;;
77326;SDS011;66399;52.322;20.980;2023-04-06T23:48:00;11.70;;;5.40;;
77326;SDS011;66399;52.322;20.980;2023-04-06T23:52:05;14.10;;;5.90;;
77326;SDS011;66399;52.322;20.980;2023-04-06T23:56:11;13.30;;;5.90;;
